sensor_id;sensor_type;location;lat;lon;timestamp;P1;durP1;ratioP1;P2;durP2;ratioP2
12846;SDS011;6492;48.128;8.320;2024-02-26T00:00:54;2.70;;;1.00;;
12846;SDS011;6492;48.128;8.320;2024-02-26T00:04:56;1.07;;;0.97;;
12846;SDS011;6492;48.128;8.320;2024-02-26T00:08:58;1.20;;;1.10;;
12846;SDS011;6492;48.128;8.320;2024-02-26T00:13:02;1.03;;;1.00;;
12846;SDS011;6492;48.128;8.320;2024-02-26T00:17:04;1.13;;;1.03;;
12846;SDS011;6492;48.128;8.320;2024-02-26T00:21:05;1.07;;;0.97;;
12846;SDS011;6492;48.128;8.320;2024-02-26T00:25:07;1.10;;;1.00;;
12846;SDS011;6492;48.128;8.320;2024-02-26T00:29:10;1.00;;;0.90;;
12846;SDS011;6492;48.128;8.320;2024-02-26T00:33:12;1.00;;;0.90;;
12846;SDS011;6492;48.128;8.320;2024-02-26T00:37:15;1.40;;;1.30;;
12846;SDS011;6492;48.128;8.320;2024-02-26T00:41:17;0.80;;;0.80;;
12846;SDS011;6492;48.128;8.320;2024-02-26T00:45:21;0.90;;;0.90;;
12846;SDS011;6492;48.128;8.320;2024-02-26T00:49:23;1.33;;;1.10;;
12846;SDS011;6492;48.128;8.320;2024-02-26T00:53:25;0.80;;;0.60;;
12846;SDS011;6492;48.128;8.320;2024-02-26T00:57:28;0.97;;;0.90;;
12846;SDS011;6492;48.128;8.320;2024-02-26T01:01:31;2.13;;;0.97;;
12846;SDS011;6492;48.128;8.320;2024-02-26T01:05:33;0.87;;;0.87;;
12846;SDS011;6492;48.128;8.320;2024-02-26T01:09:36;0.93;;;0.90;;
12846;SDS011;6492;48.128;8.320;2024-02-26T01:13:37;1.17;;;1.00;;
12846;SDS011;6492;48.128;8.320;2024-02-26T01:17:40;0.93;;;0.87;;
12846;SDS011;6492;48.128;8.320;2024-02-26T01:21:42;1.07;;;0.97;;
12846;SDS011;6492;48.128;8.320;2024-02-26T01:25:44;1.83;;;1.00;;
12846;SDS011;6492;48.128;8.320;2024-02-26T01:29:46;1.13;;;1.00;;
12846;SDS011;6492;48.128;8.320;2024-02-26T01:33:49;1.30;;;0.97;;
12846;SDS011;6492;48.128;8.320;2024-02-26T01:37:51;1.03;;;0.80;;
12846;SDS011;6492;48.128;8.320;2024-02-26T01:41:52;0.70;;;0.70;;
12846;SDS011;6492;48.128;8.320;2024-02-26T01:45:54;0.57;;;0.57;;
12846;SDS011;6492;48.128;8.320;2024-02-26T01:49:57;1.17;;;1.00;;
12846;SDS011;6492;48.128;8.320;2024-02-26T01:53:59;1.07;;;0.97;;
12846;SDS011;6492;48.128;8.320;2024-02-26T01:58:01;1.13;;;1.03;;
12846;SDS011;6492;48.128;8.320;2024-02-26T02:02:05;1.23;;;0.90;;
12846;SDS011;6492;48.128;8.320;2024-02-26T02:06:10;0.97;;;0.93;;
12846;SDS011;6492;48.128;8.320;2024-02-26T02:10:13;0.70;;;0.70;;
12846;SDS011;6492;48.128;8.320;2024-02-26T02:14:15;1.20;;;1.10;;
12846;SDS011;6492;48.128;8.320;2024-02-26T02:18:17;1.20;;;1.10;;
12846;SDS011;6492;48.128;8.320;2024-02-26T02:22:21;1.10;;;1.00;;
12846;SDS011;6492;48.128;8.320;2024-02-26T02:26:23;0.77;;;0.77;;
12846;SDS011;6492;48.128;8.320;2024-02-26T02:30:26;1.00;;;0.97;;
12846;SDS011;6492;48.128;8.320;2024-02-26T02:34:30;0.70;;;0.70;;
12846;SDS011;6492;48.128;8.320;2024-02-26T02:38:34;1.27;;;1.17;;
12846;SDS011;6492;48.128;8.320;2024-02-26T02:42:36;1.20;;;1.03;;
12846;SDS011;6492;48.128;8.320;2024-02-26T02:46:37;1.27;;;1.00;;
12846;SDS011;6492;48.128;8.320;2024-02-26T02:50:39;0.87;;;0.87;;
12846;SDS011;6492;48.128;8.320;2024-02-26T02:54:43;1.00;;;0.90;;
12846;SDS011;6492;48.128;8.320;2024-02-26T02:58:46;1.07;;;1.00;;
12846;SDS011;6492;48.128;8.320;2024-02-26T03:02:48;1.10;;;1.00;;
12846;SDS011;6492;48.128;8.320;2024-02-26T03:06:50;0.87;;;0.87;;
12846;SDS011;6492;48.128;8.320;2024-02-26T03:10:53;0.70;;;0.53;;
12846;SDS011;6492;48.128;8.320;2024-02-26T03:14:55;1.47;;;0.90;;
12846;SDS011;6492;48.128;8.320;2024-02-26T03:18:57;1.10;;;1.00;;
12846;SDS011;6492;48.128;8.320;2024-02-26T03:27:13;0.90;;;0.90;;
12846;SDS011;6492;48.128;8.320;2024-02-26T03:31:15;0.70;;;0.70;;
12846;SDS011;6492;48.128;8.320;2024-02-26T03:35:17;0.73;;;0.73;;
12846;SDS011;6492;48.128;8.320;2024-02-26T03:39:18;0.70;;;0.70;;
12846;SDS011;6492;48.128;8.320;2024-02-26T03:43:21;0.80;;;0.80;;
12846;SDS011;6492;48.128;8.320;2024-02-26T03:47:23;1.37;;;1.17;;
12846;SDS011;6492;48.128;8.320;2024-02-26T03:51:27;2.50;;;1.57;;
12846;SDS011;6492;48.128;8.320;2024-02-26T03:55:31;0.80;;;0.80;;
12846;SDS011;6492;48.128;8.320;2024-02-26T03:59:34;0.40;;;0.40;;
12846;SDS011;6492;48.128;8.320;2024-02-26T04:03:36;1.87;;;1.20;;
12846;SDS011;6492;48.128;8.320;2024-02-26T04:07:38;1.17;;;0.60;;
12846;SDS011;6492;48.128;8.320;2024-02-26T04:11:40;0.70;;;0.60;;
12846;SDS011;6492;48.128;8.320;2024-02-26T04:15:44;1.90;;;0.60;;
12846;SDS011;6492;48.128;8.320;2024-02-26T04:19:46;0.73;;;0.60;;
12846;SDS011;6492;48.128;8.320;2024-02-26T04:23:48;0.83;;;0.83;;
12846;SDS011;6492;48.128;8.320;2024-02-26T04:27:50;0.93;;;0.70;;
12846;SDS011;6492;48.128;8.320;2024-02-26T04:31:53;0.50;;;0.50;;
12846;SDS011;6492;48.128;8.320;2024-02-26T04:35:55;2.63;;;2.00;;
12846;SDS011;6492;48.128;8.320;2024-02-26T04:39:57;1.63;;;0.60;;
12846;SDS011;6492;48.128;8.320;2024-02-26T04:43:59;0.60;;;0.60;;
12846;SDS011;6492;48.128;8.320;2024-02-26T04:48:03;0.40;;;0.40;;
12846;SDS011;6492;48.128;8.320;2024-02-26T04:52:05;0.70;;;0.70;;
12846;SDS011;6492;48.128;8.320;2024-02-26T04:56:07;0.63;;;0.50;;
12846;SDS011;6492;48.128;8.320;2024-02-26T05:00:09;0.70;;;0.67;;
12846;SDS011;6492;48.128;8.320;2024-02-26T05:04:13;0.77;;;0.70;;
12846;SDS011;6492;48.128;8.320;2024-02-26T05:08:15;0.73;;;0.50;;
12846;SDS011;6492;48.128;8.320;2024-02-26T05:12:17;0.93;;;0.70;;
12846;SDS011;6492;48.128;8.320;2024-02-26T05:16:18;0.80;;;0.80;;
12846;SDS011;6492;48.128;8.320;2024-02-26T05:20:25;1.00;;;0.90;;
12846;SDS011;6492;48.128;8.320;2024-02-26T05:24:33;3.13;;;2.33;;
12846;SDS011;6492;48.128;8.320;2024-02-26T05:28:35;0.40;;;0.40;;
12846;SDS011;6492;48.128;8.320;2024-02-26T05:32:42;0.60;;;0.60;;
12846;SDS011;6492;48.128;8.320;2024-02-26T05:36:45;0.50;;;0.50;;
12846;SDS011;6492;48.128;8.320;2024-02-26T05:40:47;2.40;;;1.73;;
12846;SDS011;6492;48.128;8.320;2024-02-26T05:44:52;0.50;;;0.50;;
12846;SDS011;6492;48.128;8.320;2024-02-26T05:48:54;0.50;;;0.50;;
12846;SDS011;6492;48.128;8.320;2024-02-26T05:52:57;0.60;;;0.60;;
12846;SDS011;6492;48.128;8.320;2024-02-26T05:56:59;0.97;;;0.47;;
12846;SDS011;6492;48.128;8.320;2024-02-26T06:01:01;0.93;;;0.70;;
12846;SDS011;6492;48.128;8.320;2024-02-26T06:05:03;1.37;;;0.90;;
12846;SDS011;6492;48.128;8.320;2024-02-26T06:09:08;0.70;;;0.70;;
12846;SDS011;6492;48.128;8.320;2024-02-26T06:13:11;0.76;;;0.74;;
12846;SDS011;6492;48.128;8.320;2024-02-26T06:17:13;0.70;;;0.60;;
12846;SDS011;6492;48.128;8.320;2024-02-26T06:21:14;1.00;;;0.60;;
12846;SDS011;6492;48.128;8.320;2024-02-26T06:25:18;0.93;;;0.90;;
12846;SDS011;6492;48.128;8.320;2024-02-26T06:29:19;0.57;;;0.57;;
12846;SDS011;6492;48.128;8.320;2024-02-26T06:33:21;0.83;;;0.80;;
12846;SDS011;6492;48.128;8.320;2024-02-26T06:37:23;0.73;;;0.73;;
12846;SDS011;6492;48.128;8.320;2024-02-26T06:41:26;0.77;;;0.77;;
12846;SDS011;6492;48.128;8.320;2024-02-26T06:45:29;0.97;;;0.63;;
12846;SDS011;6492;48.128;8.320;2024-02-26T06:49:31;0.80;;;0.80;;
12846;SDS011;6492;48.128;8.320;2024-02-26T06:53:33;0.70;;;0.70;;
12846;SDS011;6492;48.128;8.320;2024-02-26T06:57:36;0.60;;;0.60;;
12846;SDS011;6492;48.128;8.320;2024-02-26T07:01:39;0.80;;;0.80;;
12846;SDS011;6492;48.128;8.320;2024-02-26T07:05:41;1.67;;;1.20;;
12846;SDS011;6492;48.128;8.320;2024-02-26T07:09:45;1.00;;;1.00;;
12846;SDS011;6492;48.128;8.320;2024-02-26T07:13:48;1.37;;;1.23;;
12846;SDS011;6492;48.128;8.320;2024-02-26T07:17:50;1.27;;;1.17;;
12846;SDS011;6492;48.128;8.320;2024-02-26T07:21:52;0.80;;;0.80;;
12846;SDS011;6492;48.128;8.320;2024-02-26T07:25:53;0.70;;;0.70;;
12846;SDS011;6492;48.128;8.320;2024-02-26T07:29:57;0.67;;;0.60;;
12846;SDS011;6492;48.128;8.320;2024-02-26T07:33:58;0.43;;;0.43;;
12846;SDS011;6492;48.128;8.320;2024-02-26T07:38:00;0.70;;;0.70;;
12846;SDS011;6492;48.128;8.320;2024-02-26T07:42:02;3.50;;;3.20;;
12846;SDS011;6492;48.128;8.320;2024-02-26T07:46:05;1.70;;;1.60;;
12846;SDS011;6492;48.128;8.320;2024-02-26T07:50:07;1.60;;;1.50;;
12846;SDS011;6492;48.128;8.320;2024-02-26T07:54:09;2.97;;;2.47;;
12846;SDS011;6492;48.128;8.320;2024-02-26T07:58:11;2.30;;;2.10;;
12846;SDS011;6492;48.128;8.320;2024-02-26T08:02:14;14.53;;;12.63;;
12846;SDS011;6492;48.128;8.320;2024-02-26T08:06:16;5.87;;;5.27;;
12846;SDS011;6492;48.128;8.320;2024-02-26T08:10:18;10.27;;;7.67;;
12846;SDS011;6492;48.128;8.320;2024-02-26T08:14:24;1.77;;;1.67;;
12846;SDS011;6492;48.128;8.320;2024-02-26T08:18:27;2.93;;;2.50;;
12846;SDS011;6492;48.128;8.320;2024-02-26T08:22:29;2.40;;;2.03;;
12846;SDS011;6492;48.128;8.320;2024-02-26T08:26:30;3.17;;;2.60;;
12846;SDS011;6492;48.128;8.320;2024-02-26T08:30:32;2.77;;;1.87;;
12846;SDS011;6492;48.128;8.320;2024-02-26T08:34:35;1.57;;;1.30;;
12846;SDS011;6492;48.128;8.320;2024-02-26T08:38:37;1.97;;;1.23;;
12846;SDS011;6492;48.128;8.320;2024-02-26T08:42:39;4.43;;;3.43;;
12846;SDS011;6492;48.128;8.320;2024-02-26T08:46:41;2.07;;;1.30;;
12846;SDS011;6492;48.128;8.320;2024-02-26T08:50:44;1.70;;;1.60;;
12846;SDS011;6492;48.128;8.320;2024-02-26T08:54:46;3.50;;;3.17;;
12846;SDS011;6492;48.128;8.320;2024-02-26T08:58:47;0.60;;;0.60;;
12846;SDS011;6492;48.128;8.320;2024-02-26T09:02:51;1.17;;;0.60;;
12846;SDS011;6492;48.128;8.320;2024-02-26T09:06:54;0.60;;;0.60;;
12846;SDS011;6492;48.128;8.320;2024-02-26T09:10:56;0.97;;;0.80;;
12846;SDS011;6492;48.128;8.320;2024-02-26T09:15:05;0.70;;;0.70;;
12846;SDS011;6492;48.128;8.320;2024-02-26T09:19:08;2.10;;;1.90;;
12846;SDS011;6492;48.128;8.320;2024-02-26T09:23:11;0.97;;;0.97;;
12846;SDS011;6492;48.128;8.320;2024-02-26T09:27:13;1.33;;;1.10;;
12846;SDS011;6492;48.128;8.320;2024-02-26T09:31:14;2.10;;;0.90;;
12846;SDS011;6492;48.128;8.320;2024-02-26T09:35:17;0.80;;;0.80;;
12846;SDS011;6492;48.128;8.320;2024-02-26T09:39:20;1.10;;;1.00;;
12846;SDS011;6492;48.128;8.320;2024-02-26T09:43:22;0.80;;;0.80;;
12846;SDS011;6492;48.128;8.320;2024-02-26T09:47:24;1.07;;;0.80;;
12846;SDS011;6492;48.128;8.320;2024-02-26T09:51:28;0.97;;;0.97;;
12846;SDS011;6492;48.128;8.320;2024-02-26T09:55:31;1.10;;;1.00;;
12846;SDS011;6492;48.128;8.320;2024-02-26T09:59:35;1.20;;;1.10;;
12846;SDS011;6492;48.128;8.320;2024-02-26T10:03:41;1.70;;;1.40;;
12846;SDS011;6492;48.128;8.320;2024-02-26T10:07:45;1.13;;;1.07;;
12846;SDS011;6492;48.128;8.320;2024-02-26T10:11:48;5.53;;;2.90;;
12846;SDS011;6492;48.128;8.320;2024-02-26T10:15:50;3.63;;;2.27;;
12846;SDS011;6492;48.128;8.320;2024-02-26T10:19:52;3.30;;;1.70;;
12846;SDS011;6492;48.128;8.320;2024-02-26T10:23:56;1.73;;;1.33;;
12846;SDS011;6492;48.128;8.320;2024-02-26T10:28:00;4.17;;;2.30;;
12846;SDS011;6492;48.128;8.320;2024-02-26T10:32:03;2.90;;;1.97;;
12846;SDS011;6492;48.128;8.320;2024-02-26T10:36:06;2.40;;;1.97;;
12846;SDS011;6492;48.128;8.320;2024-02-26T10:40:09;3.00;;;2.57;;
12846;SDS011;6492;48.128;8.320;2024-02-26T10:44:13;3.30;;;2.27;;
12846;SDS011;6492;48.128;8.320;2024-02-26T10:48:15;2.47;;;2.17;;
12846;SDS011;6492;48.128;8.320;2024-02-26T10:52:17;2.80;;;2.13;;
12846;SDS011;6492;48.128;8.320;2024-02-26T10:56:20;1.53;;;1.20;;
12846;SDS011;6492;48.128;8.320;2024-02-26T11:00:27;1.30;;;1.20;;
12846;SDS011;6492;48.128;8.320;2024-02-26T11:04:29;2.13;;;1.43;;
12846;SDS011;6492;48.128;8.320;2024-02-26T11:08:32;1.50;;;1.30;;
12846;SDS011;6492;48.128;8.320;2024-02-26T11:12:35;1.10;;;1.00;;
12846;SDS011;6492;48.128;8.320;2024-02-26T11:16:41;1.77;;;1.10;;
12846;SDS011;6492;48.128;8.320;2024-02-26T11:20:43;1.17;;;1.00;;
12846;SDS011;6492;48.128;8.320;2024-02-26T11:24:46;1.00;;;1.00;;
12846;SDS011;6492;48.128;8.320;2024-02-26T11:28:49;1.30;;;0.90;;
12846;SDS011;6492;48.128;8.320;2024-02-26T11:32:54;0.93;;;0.80;;
12846;SDS011;6492;48.128;8.320;2024-02-26T11:36:56;3.43;;;2.03;;
12846;SDS011;6492;48.128;8.320;2024-02-26T11:40:58;1.43;;;0.90;;
12846;SDS011;6492;48.128;8.320;2024-02-26T11:45:00;2.47;;;1.37;;
12846;SDS011;6492;48.128;8.320;2024-02-26T11:53:32;1.80;;;1.10;;
12846;SDS011;6492;48.128;8.320;2024-02-26T11:57:37;1.40;;;1.07;;
12846;SDS011;6492;48.128;8.320;2024-02-26T12:01:42;2.47;;;1.63;;
12846;SDS011;6492;48.128;8.320;2024-02-26T12:05:46;1.67;;;1.57;;
12846;SDS011;6492;48.128;8.320;2024-02-26T12:09:48;1.30;;;1.20;;
12846;SDS011;6492;48.128;8.320;2024-02-26T12:13:49;1.70;;;1.40;;
12846;SDS011;6492;48.128;8.320;2024-02-26T12:17:52;1.10;;;1.00;;
12846;SDS011;6492;48.128;8.320;2024-02-26T12:21:55;1.50;;;0.90;;
12846;SDS011;6492;48.128;8.320;2024-02-26T12:25:58;1.20;;;1.10;;
12846;SDS011;6492;48.128;8.320;2024-02-26T12:30:00;1.13;;;1.07;;
12846;SDS011;6492;48.128;8.320;2024-02-26T12:34:03;1.57;;;1.00;;
12846;SDS011;6492;48.128;8.320;2024-02-26T12:38:07;1.00;;;0.90;;
12846;SDS011;6492;48.128;8.320;2024-02-26T12:42:09;2.03;;;0.93;;
12846;SDS011;6492;48.128;8.320;2024-02-26T12:46:11;1.23;;;1.13;;
12846;SDS011;6492;48.128;8.320;2024-02-26T12:50:15;1.00;;;0.90;;
12846;SDS011;6492;48.128;8.320;2024-02-26T12:54:18;1.10;;;1.00;;
12846;SDS011;6492;48.128;8.320;2024-02-26T12:58:20;1.10;;;0.93;;
12846;SDS011;6492;48.128;8.320;2024-02-26T13:02:24;2.80;;;1.40;;
12846;SDS011;6492;48.128;8.320;2024-02-26T13:06:26;1.33;;;1.23;;
12846;SDS011;6492;48.128;8.320;2024-02-26T13:10:30;1.57;;;1.30;;
12846;SDS011;6492;48.128;8.320;2024-02-26T13:14:34;2.13;;;1.70;;
12846;SDS011;6492;48.128;8.320;2024-02-26T13:18:36;1.13;;;1.00;;
12846;SDS011;6492;48.128;8.320;2024-02-26T13:22:38;1.47;;;0.90;;
12846;SDS011;6492;48.128;8.320;2024-02-26T13:26:41;2.07;;;1.00;;
12846;SDS011;6492;48.128;8.320;2024-02-26T13:30:49;2.97;;;1.90;;
12846;SDS011;6492;48.128;8.320;2024-02-26T13:34:52;1.10;;;1.00;;
12846;SDS011;6492;48.128;8.320;2024-02-26T13:39:06;1.60;;;1.38;;
12846;SDS011;6492;48.128;8.320;2024-02-26T13:43:14;1.60;;;0.85;;
12846;SDS011;6492;48.128;8.320;2024-02-26T13:47:16;0.98;;;0.73;;
12846;SDS011;6492;48.128;8.320;2024-02-26T13:51:18;0.70;;;0.70;;
12846;SDS011;6492;48.128;8.320;2024-02-26T13:55:28;1.27;;;1.15;;
12846;SDS011;6492;48.128;8.320;2024-02-26T13:59:33;1.60;;;0.83;;
12846;SDS011;6492;48.128;8.320;2024-02-26T14:03:34;1.43;;;1.13;;
12846;SDS011;6492;48.128;8.320;2024-02-26T14:07:36;1.30;;;1.00;;
12846;SDS011;6492;48.128;8.320;2024-02-26T14:11:38;1.10;;;1.00;;
12846;SDS011;6492;48.128;8.320;2024-02-26T14:15:43;1.83;;;1.33;;
12846;SDS011;6492;48.128;8.320;2024-02-26T14:19:45;1.83;;;1.50;;
12846;SDS011;6492;48.128;8.320;2024-02-26T14:23:48;5.80;;;4.47;;
12846;SDS011;6492;48.128;8.320;2024-02-26T14:27:49;2.33;;;1.83;;
12846;SDS011;6492;48.128;8.320;2024-02-26T14:31:53;1.40;;;1.30;;
12846;SDS011;6492;48.128;8.320;2024-02-26T14:35:56;3.03;;;1.57;;
12846;SDS011;6492;48.128;8.320;2024-02-26T14:39:58;1.60;;;1.40;;
12846;SDS011;6492;48.128;8.320;2024-02-26T14:44:00;2.03;;;1.40;;
12846;SDS011;6492;48.128;8.320;2024-02-26T14:48:04;1.83;;;1.57;;
12846;SDS011;6492;48.128;8.320;2024-02-26T14:52:07;1.77;;;1.57;;
12846;SDS011;6492;48.128;8.320;2024-02-26T14:56:10;1.67;;;1.50;;
12846;SDS011;6492;48.128;8.320;2024-02-26T15:00:12;2.13;;;1.70;;
12846;SDS011;6492;48.128;8.320;2024-02-26T15:04:15;1.47;;;1.37;;
12846;SDS011;6492;48.128;8.320;2024-02-26T15:08:17;2.50;;;1.50;;
12846;SDS011;6492;48.128;8.320;2024-02-26T15:12:19;1.70;;;1.60;;
12846;SDS011;6492;48.128;8.320;2024-02-26T15:16:20;3.43;;;1.20;;
12846;SDS011;6492;48.128;8.320;2024-02-26T15:20:23;1.53;;;1.40;;
12846;SDS011;6492;48.128;8.320;2024-02-26T15:24:25;1.97;;;1.40;;
12846;SDS011;6492;48.128;8.320;2024-02-26T15:28:27;2.60;;;2.27;;
12846;SDS011;6492;48.128;8.320;2024-02-26T15:32:29;1.30;;;1.20;;
12846;SDS011;6492;48.128;8.320;2024-02-26T15:36:33;1.53;;;1.43;;
12846;SDS011;6492;48.128;8.320;2024-02-26T15:40:35;1.43;;;1.33;;
12846;SDS011;6492;48.128;8.320;2024-02-26T15:44:37;1.77;;;1.27;;
12846;SDS011;6492;48.128;8.320;2024-02-26T15:48:39;2.73;;;1.80;;
12846;SDS011;6492;48.128;8.320;2024-02-26T15:52:42;2.17;;;1.30;;
12846;SDS011;6492;48.128;8.320;2024-02-26T15:56:44;1.90;;;1.50;;
12846;SDS011;6492;48.128;8.320;2024-02-26T16:00:46;2.63;;;1.70;;
12846;SDS011;6492;48.128;8.320;2024-02-26T16:04:48;3.13;;;1.90;;
12846;SDS011;6492;48.128;8.320;2024-02-26T16:08:52;2.80;;;1.93;;
12846;SDS011;6492;48.128;8.320;2024-02-26T16:12:55;2.20;;;1.67;;
12846;SDS011;6492;48.128;8.320;2024-02-26T16:17:00;3.13;;;1.67;;
12846;SDS011;6492;48.128;8.320;2024-02-26T16:21:11;2.90;;;2.27;;
12846;SDS011;6492;48.128;8.320;2024-02-26T16:25:21;5.30;;;3.30;;
12846;SDS011;6492;48.128;8.320;2024-02-26T16:29:23;6.00;;;3.90;;
12846;SDS011;6492;48.128;8.320;2024-02-26T16:33:26;4.80;;;2.77;;
12846;SDS011;6492;48.128;8.320;2024-02-26T16:37:28;4.50;;;3.47;;
12846;SDS011;6492;48.128;8.320;2024-02-26T16:41:40;3.17;;;1.80;;
12846;SDS011;6492;48.128;8.320;2024-02-26T16:45:43;3.50;;;2.27;;
12846;SDS011;6492;48.128;8.320;2024-02-26T16:49:45;2.27;;;1.90;;
12846;SDS011;6492;48.128;8.320;2024-02-26T16:53:47;2.23;;;1.80;;
12846;SDS011;6492;48.128;8.320;2024-02-26T16:57:50;2.20;;;2.00;;
12846;SDS011;6492;48.128;8.320;2024-02-26T17:01:52;2.80;;;2.00;;
12846;SDS011;6492;48.128;8.320;2024-02-26T17:06:09;3.37;;;2.20;;
12846;SDS011;6492;48.128;8.320;2024-02-26T17:10:10;3.17;;;2.50;;
12846;SDS011;6492;48.128;8.320;2024-02-26T17:14:14;4.90;;;2.60;;
12846;SDS011;6492;48.128;8.320;2024-02-26T17:18:22;12.30;;;7.60;;
12846;SDS011;6492;48.128;8.320;2024-02-26T17:22:23;8.13;;;5.80;;
12846;SDS011;6492;48.128;8.320;2024-02-26T17:26:26;7.13;;;4.07;;
12846;SDS011;6492;48.128;8.320;2024-02-26T17:30:29;7.73;;;4.57;;
12846;SDS011;6492;48.128;8.320;2024-02-26T17:34:31;7.37;;;4.17;;
12846;SDS011;6492;48.128;8.320;2024-02-26T17:38:33;3.17;;;2.80;;
12846;SDS011;6492;48.128;8.320;2024-02-26T17:42:35;3.43;;;2.57;;
12846;SDS011;6492;48.128;8.320;2024-02-26T17:46:45;2.00;;;1.80;;
12846;SDS011;6492;48.128;8.320;2024-02-26T17:50:48;4.10;;;2.20;;
12846;SDS011;6492;48.128;8.320;2024-02-26T17:54:50;3.53;;;2.17;;
12846;SDS011;6492;48.128;8.320;2024-02-26T17:58:52;3.13;;;2.80;;
12846;SDS011;6492;48.128;8.320;2024-02-26T18:02:56;5.40;;;3.23;;
12846;SDS011;6492;48.128;8.320;2024-02-26T18:06:58;3.37;;;2.73;;
12846;SDS011;6492;48.128;8.320;2024-02-26T18:11:01;3.43;;;2.87;;
12846;SDS011;6492;48.128;8.320;2024-02-26T18:15:03;4.23;;;2.90;;
12846;SDS011;6492;48.128;8.320;2024-02-26T18:19:14;4.03;;;3.17;;
12846;SDS011;6492;48.128;8.320;2024-02-26T18:23:16;3.27;;;2.53;;
12846;SDS011;6492;48.128;8.320;2024-02-26T18:27:19;3.80;;;2.20;;
12846;SDS011;6492;48.128;8.320;2024-02-26T18:31:21;2.37;;;2.10;;
12846;SDS011;6492;48.128;8.320;2024-02-26T18:35:25;2.40;;;2.17;;
12846;SDS011;6492;48.128;8.320;2024-02-26T18:39:27;3.10;;;2.33;;
12846;SDS011;6492;48.128;8.320;2024-02-26T18:43:29;2.83;;;1.83;;
12846;SDS011;6492;48.128;8.320;2024-02-26T18:47:32;3.23;;;2.60;;
12846;SDS011;6492;48.128;8.320;2024-02-26T18:51:35;2.67;;;2.43;;
12846;SDS011;6492;48.128;8.320;2024-02-26T18:55:37;7.03;;;3.13;;
12846;SDS011;6492;48.128;8.320;2024-02-26T18:59:39;3.80;;;3.40;;
12846;SDS011;6492;48.128;8.320;2024-02-26T19:03:43;5.30;;;3.80;;
12846;SDS011;6492;48.128;8.320;2024-02-26T19:07:46;4.93;;;3.63;;
12846;SDS011;6492;48.128;8.320;2024-02-26T19:11:48;3.80;;;3.23;;
12846;SDS011;6492;48.128;8.320;2024-02-26T19:15:52;4.13;;;3.23;;
12846;SDS011;6492;48.128;8.320;2024-02-26T19:19:54;4.07;;;3.23;;
12846;SDS011;6492;48.128;8.320;2024-02-26T19:23:58;4.53;;;3.83;;
12846;SDS011;6492;48.128;8.320;2024-02-26T19:27:59;4.03;;;3.53;;
12846;SDS011;6492;48.128;8.320;2024-02-26T19:32:03;4.40;;;3.57;;
12846;SDS011;6492;48.128;8.320;2024-02-26T19:36:10;4.63;;;3.60;;
12846;SDS011;6492;48.128;8.320;2024-02-26T19:40:14;3.27;;;2.87;;
12846;SDS011;6492;48.128;8.320;2024-02-26T19:44:16;3.10;;;2.80;;
12846;SDS011;6492;48.128;8.320;2024-02-26T19:48:18;5.33;;;4.03;;
12846;SDS011;6492;48.128;8.320;2024-02-26T19:52:19;5.83;;;3.90;;
12846;SDS011;6492;48.128;8.320;2024-02-26T19:56:24;7.27;;;4.33;;
12846;SDS011;6492;48.128;8.320;2024-02-26T20:00:28;7.10;;;5.97;;
12846;SDS011;6492;48.128;8.320;2024-02-26T20:04:30;8.27;;;6.20;;
12846;SDS011;6492;48.128;8.320;2024-02-26T20:08:33;10.17;;;7.20;;
12846;SDS011;6492;48.128;8.320;2024-02-26T20:12:36;9.53;;;6.47;;
12846;SDS011;6492;48.128;8.320;2024-02-26T20:16:38;10.23;;;6.87;;
12846;SDS011;6492;48.128;8.320;2024-02-26T20:20:40;8.93;;;6.43;;
12846;SDS011;6492;48.128;8.320;2024-02-26T20:24:43;7.37;;;5.20;;
12846;SDS011;6492;48.128;8.320;2024-02-26T20:28:52;5.93;;;4.50;;
12846;SDS011;6492;48.128;8.320;2024-02-26T20:32:54;5.23;;;3.53;;
12846;SDS011;6492;48.128;8.320;2024-02-26T20:36:56;3.50;;;3.20;;
12846;SDS011;6492;48.128;8.320;2024-02-26T20:40:57;4.47;;;3.53;;
12846;SDS011;6492;48.128;8.320;2024-02-26T20:45:01;5.90;;;4.20;;
12846;SDS011;6492;48.128;8.320;2024-02-26T20:49:04;7.03;;;4.63;;
12846;SDS011;6492;48.128;8.320;2024-02-26T20:53:06;7.50;;;6.00;;
12846;SDS011;6492;48.128;8.320;2024-02-26T20:57:08;5.97;;;4.80;;
12846;SDS011;6492;48.128;8.320;2024-02-26T21:01:13;6.40;;;5.40;;
12846;SDS011;6492;48.128;8.320;2024-02-26T21:05:26;7.43;;;6.33;;
12846;SDS011;6492;48.128;8.320;2024-02-26T21:09:28;9.30;;;6.97;;
12846;SDS011;6492;48.128;8.320;2024-02-26T21:13:30;7.67;;;6.23;;
12846;SDS011;6492;48.128;8.320;2024-02-26T21:17:33;6.83;;;5.67;;
12846;SDS011;6492;48.128;8.320;2024-02-26T21:21:35;5.47;;;4.60;;
12846;SDS011;6492;48.128;8.320;2024-02-26T21:25:38;5.63;;;4.50;;
12846;SDS011;6492;48.128;8.320;2024-02-26T21:29:40;5.67;;;4.67;;
12846;SDS011;6492;48.128;8.320;2024-02-26T21:33:43;5.97;;;4.10;;
12846;SDS011;6492;48.128;8.320;2024-02-26T21:37:45;4.77;;;4.23;;
12846;SDS011;6492;48.128;8.320;2024-02-26T21:41:47;4.80;;;4.20;;
12846;SDS011;6492;48.128;8.320;2024-02-26T21:45:49;3.67;;;3.30;;
12846;SDS011;6492;48.128;8.320;2024-02-26T21:49:53;3.43;;;3.07;;
12846;SDS011;6492;48.128;8.320;2024-02-26T21:53:54;4.27;;;3.63;;
12846;SDS011;6492;48.128;8.320;2024-02-26T21:57:56;5.10;;;3.80;;
12846;SDS011;6492;48.128;8.320;2024-02-26T22:01:58;5.47;;;4.20;;
12846;SDS011;6492;48.128;8.320;2024-02-26T22:06:02;5.83;;;4.30;;
12846;SDS011;6492;48.128;8.320;2024-02-26T22:10:04;5.03;;;3.90;;
12846;SDS011;6492;48.128;8.320;2024-02-26T22:14:07;4.73;;;3.67;;
12846;SDS011;6492;48.128;8.320;2024-02-26T22:18:09;3.87;;;3.33;;
12846;SDS011;6492;48.128;8.320;2024-02-26T22:22:13;4.77;;;3.30;;
12846;SDS011;6492;48.128;8.320;2024-02-26T22:26:15;4.47;;;3.17;;
12846;SDS011;6492;48.128;8.320;2024-02-26T22:30:16;4.07;;;2.80;;
12846;SDS011;6492;48.128;8.320;2024-02-26T22:34:18;4.93;;;3.37;;
12846;SDS011;6492;48.128;8.320;2024-02-26T22:38:21;4.87;;;3.10;;
12846;SDS011;6492;48.128;8.320;2024-02-26T22:42:23;4.20;;;3.03;;
12846;SDS011;6492;48.128;8.320;2024-02-26T22:46:25;3.10;;;2.60;;
12846;SDS011;6492;48.128;8.320;2024-02-26T22:50:27;5.97;;;4.00;;
12846;SDS011;6492;48.128;8.320;2024-02-26T22:54:30;3.37;;;3.00;;
12846;SDS011;6492;48.128;8.320;2024-02-26T22:58:32;3.67;;;3.20;;
12846;SDS011;6492;48.128;8.320;2024-02-26T23:02:34;3.70;;;2.80;;
12846;SDS011;6492;48.128;8.320;2024-02-26T23:06:38;3.73;;;3.37;;
12846;SDS011;6492;48.128;8.320;2024-02-26T23:10:41;5.10;;;3.73;;
12846;SDS011;6492;48.128;8.320;2024-02-26T23:14:43;4.67;;;3.27;;
12846;SDS011;6492;48.128;8.320;2024-02-26T23:18:45;3.90;;;3.40;;
12846;SDS011;6492;48.128;8.320;2024-02-26T23:22:48;4.47;;;3.50;;
12846;SDS011;6492;48.128;8.320;2024-02-26T23:26:52;4.60;;;3.53;;
12846;SDS011;6492;48.128;8.320;2024-02-26T23:30:54;3.80;;;3.13;;
12846;SDS011;6492;48.128;8.320;2024-02-26T23:34:55;3.90;;;3.20;;
12846;SDS011;6492;48.128;8.320;2024-02-26T23:38:57;5.00;;;3.23;;
12846;SDS011;6492;48.128;8.320;2024-02-26T23:43:01;4.00;;;3.30;;
12846;SDS011;6492;48.128;8.320;2024-02-26T23:47:03;6.40;;;3.93;;
12846;SDS011;6492;48.128;8.320;2024-02-26T23:51:05;3.70;;;3.27;;
12846;SDS011;6492;48.128;8.320;2024-02-26T23:55:07;3.67;;;3.33;;
12846;SDS011;6492;48.128;8.320;2024-02-26T23:59:10;3.67;;;3.27;;
